createdAt,value
2019-04-28T00:04:56.521Z,4.05
2019-04-28T00:10:01.313Z,5.08
2019-04-28T00:15:07.001Z,6.25
2019-04-28T00:20:14.856Z,4.07
2019-04-28T00:25:25.633Z,4.07
2019-04-28T00:30:31.704Z,4.47
2019-04-28T00:35:41.846Z,5.37
2019-04-28T00:40:46.572Z,5.08
2019-04-28T00:45:51.406Z,4.55
2019-04-28T00:50:56.219Z,5.25
2019-04-28T00:56:02.167Z,6.75
2019-04-28T01:01:11.368Z,6.37
2019-04-28T01:06:16.121Z,6.72
2019-04-28T01:11:21.733Z,6.22
2019-04-28T01:16:43.366Z,7.83
2019-04-28T01:22:05.667Z,5.85
2019-04-28T01:27:33.076Z,7.80
2019-04-28T01:32:49.899Z,6.70
2019-04-28T01:37:54.656Z,6.37
2019-04-28T01:42:59.829Z,7.33
2019-04-28T01:48:05.516Z,5.47
2019-04-28T01:53:10.242Z,6.17
2019-04-28T01:58:15.078Z,8.43
2019-04-28T02:03:20.549Z,5.50
2019-04-28T02:08:25.546Z,6.28
2019-04-28T02:13:30.354Z,8.83
2019-04-28T02:18:36.096Z,12.00
2019-04-28T02:23:44.350Z,8.58
2019-04-28T02:28:50.443Z,10.40
2019-04-28T02:34:02.540Z,8.80
2019-04-28T02:39:07.441Z,8.65
2019-04-28T02:44:12.259Z,11.18
2019-04-28T02:49:25.812Z,6.65
2019-04-28T02:54:30.621Z,9.63
2019-04-28T02:59:35.524Z,10.55
2019-04-28T03:04:46.389Z,11.18
2019-04-28T03:09:51.957Z,9.40
2019-04-28T03:14:57.392Z,15.48
2019-04-28T03:20:02.245Z,14.78
2019-04-28T03:25:10.905Z,10.23
2019-04-28T03:30:34.930Z,10.57
2019-04-28T03:35:43.732Z,9.45
2019-04-28T03:40:46.087Z,12.43
2019-04-28T03:45:55.720Z,9.98
2019-04-28T03:51:00.863Z,14.55
2019-04-28T03:56:05.731Z,9.30
2019-04-28T04:01:11.018Z,8.88
2019-04-28T04:06:17.315Z,10.45
2019-04-28T04:11:41.081Z,9.55
2019-04-28T04:16:51.108Z,9.85
2019-04-28T04:22:00.379Z,9.73
2019-04-28T04:27:04.908Z,10.55
2019-04-28T04:32:19.094Z,8.75
2019-04-28T04:37:16.383Z,8.58
2019-04-28T04:42:21.110Z,8.53
2019-04-28T04:47:25.848Z,8.73
2019-04-28T04:52:30.908Z,9.45
2019-04-28T04:57:35.658Z,9.43
2019-04-28T05:02:52.119Z,8.85
2019-04-28T05:07:54.726Z,7.87
2019-04-28T05:13:00.224Z,9.43
2019-04-28T05:18:05.146Z,9.90
2019-04-28T05:23:35.025Z,11.88
2019-04-28T05:28:44.047Z,9.43
2019-04-28T05:33:46.996Z,11.50
2019-04-28T05:38:52.155Z,12.18
2019-04-28T05:43:56.945Z,12.47
2019-04-28T05:49:10.534Z,13.00
2019-04-28T05:54:40.326Z,17.35
2019-04-28T06:00:07.775Z,13.13
2019-04-28T06:05:14.536Z,12.67
2019-04-28T06:10:20.198Z,16.67
2019-04-28T06:15:25.220Z,14.90
2019-04-28T06:20:30.389Z,15.83
2019-04-28T06:25:36.566Z,15.00
2019-04-28T06:30:41.512Z,17.53
2019-04-28T06:35:52.523Z,15.60
2019-04-28T06:40:57.254Z,18.23
2019-04-28T06:46:02.248Z,15.35
2019-04-28T06:51:06.980Z,12.70
2019-04-28T06:56:12.043Z,13.20
2019-04-28T07:01:16.852Z,12.97
2019-04-28T07:06:21.726Z,11.60
2019-04-28T07:11:26.447Z,15.18
2019-04-28T07:16:31.621Z,13.60
2019-04-28T07:21:48.669Z,14.58
2019-04-28T07:26:53.453Z,14.78
2019-04-28T07:31:58.626Z,13.65
2019-04-28T07:37:04.799Z,12.47
2019-04-28T07:42:10.469Z,14.80
2019-04-28T07:47:15.339Z,11.83
2019-04-28T07:52:31.844Z,10.60
2019-04-28T07:57:36.600Z,9.20
2019-04-28T08:02:41.317Z,10.32
2019-04-28T08:07:46.763Z,7.60
2019-04-28T08:12:51.573Z,9.03
2019-04-28T08:17:56.269Z,6.50
2019-04-28T08:23:01.025Z,6.17
2019-04-28T08:28:05.887Z,6.17
2019-04-28T08:33:33.304Z,7.65
2019-04-28T08:38:39.256Z,7.72
2019-04-28T08:43:44.052Z,5.30
2019-04-28T08:48:48.902Z,7.30
2019-04-28T08:53:53.705Z,7.80
2019-04-28T08:58:58.445Z,7.37
2019-04-28T09:04:14.859Z,6.12
2019-04-28T09:09:14.089Z,7.87
2019-04-28T09:14:18.835Z,6.75
2019-04-28T09:19:23.579Z,6.33
2019-04-28T09:24:34.399Z,5.87
2019-04-28T09:29:39.699Z,8.25
2019-04-28T09:34:44.649Z,5.12
2019-04-28T09:39:59.921Z,4.87
2019-04-28T09:45:09.752Z,3.80
2019-04-28T09:50:14.867Z,5.47
2019-04-28T09:55:20.018Z,5.27
2019-04-28T10:00:25.189Z,4.95
2019-04-28T10:05:30.759Z,4.67
2019-04-28T10:10:36.337Z,1.87
2019-04-28T10:15:41.758Z,3.15
2019-04-28T10:20:47.266Z,4.60
2019-04-28T10:25:52.008Z,4.33
2019-04-28T10:30:56.979Z,2.85
2019-04-28T10:36:01.984Z,2.62
2019-04-28T10:41:14.852Z,2.72
2019-04-28T10:46:21.315Z,5.03
2019-04-28T10:51:26.194Z,1.90
2019-04-28T10:56:32.188Z,2.90
2019-04-28T11:01:39.098Z,2.75
2019-04-28T11:06:44.208Z,2.17
2019-04-28T11:11:49.262Z,2.62
2019-04-28T11:16:54.206Z,2.25
2019-04-28T11:21:59.102Z,2.62
2019-04-28T11:27:04.794Z,3.42
2019-04-28T11:32:09.703Z,1.87
2019-04-28T11:37:15.194Z,2.33
2019-04-28T11:42:20.183Z,7.08
2019-04-28T11:47:25.314Z,3.35
2019-04-28T11:52:30.427Z,2.35
2019-04-28T11:57:35.307Z,2.12
2019-04-28T12:02:40.023Z,3.45
2019-04-28T12:07:45.174Z,2.35
2019-04-28T12:13:01.196Z,4.47
2019-04-28T12:18:26.990Z,4.83
2019-04-28T12:23:31.694Z,3.60
2019-04-28T12:28:36.389Z,2.72
2019-04-28T12:33:41.147Z,1.87
2019-04-28T12:38:46.127Z,1.92
2019-04-28T12:43:51.162Z,2.65
2019-04-28T12:49:06.888Z,2.02
2019-04-28T12:54:16.463Z,4.37
2019-04-28T12:59:26.789Z,4.17
2019-04-28T13:04:54.101Z,3.62
2019-04-28T13:10:01.194Z,2.92
2019-04-28T13:15:06.317Z,2.40
2019-04-28T13:20:12.793Z,2.70
2019-04-28T13:25:17.609Z,2.50
2019-04-28T13:30:24.085Z,7.47
2019-04-28T13:35:29.209Z,2.58
2019-04-28T13:40:35.988Z,2.05
2019-04-28T13:45:41.209Z,1.95
2019-04-28T13:50:48.808Z,4.47
2019-04-28T13:56:17.754Z,2.62
2019-04-28T14:01:38.426Z,2.83
2019-04-28T14:06:46.730Z,1.80
2019-04-28T14:11:51.648Z,4.25
2019-04-28T14:16:56.683Z,4.05
2019-04-28T14:22:02.076Z,3.87
2019-04-28T14:27:07.105Z,2.33
2019-04-28T14:32:14.860Z,2.35
2019-04-28T14:37:19.674Z,5.25
2019-04-28T14:42:24.844Z,2.85
2019-04-28T14:47:30.015Z,2.62
2019-04-28T14:52:35.288Z,2.10
2019-04-28T14:57:40.203Z,1.82
2019-04-28T15:02:50.886Z,2.12
2019-04-28T15:08:04.560Z,2.72
2019-04-28T15:13:11.337Z,2.52
2019-04-28T15:18:16.334Z,2.07
2019-04-28T15:23:21.177Z,2.70
2019-04-28T15:28:26.127Z,3.50
2019-04-28T15:33:30.934Z,1.92
2019-04-28T15:38:35.806Z,2.80
2019-04-28T15:43:40.779Z,1.20
2019-04-28T15:48:45.524Z,4.10
2019-04-28T15:53:50.284Z,3.00
2019-04-28T15:58:56.736Z,3.10
2019-04-28T16:04:01.498Z,2.87
2019-04-28T16:09:11.665Z,2.30
2019-04-28T16:14:16.632Z,3.30
2019-04-28T16:19:23.853Z,1.25
2019-04-28T16:24:28.831Z,1.47
2019-04-28T16:29:33.577Z,2.15
2019-04-28T16:34:39.835Z,2.00
2019-04-28T16:39:44.809Z,1.90
2019-04-28T16:44:49.628Z,3.30
2019-04-28T16:49:54.361Z,2.27
2019-04-28T16:55:18.115Z,1.98
2019-04-28T17:00:33.884Z,2.58
2019-04-28T17:05:39.001Z,1.07
2019-04-28T17:10:43.868Z,1.35
2019-04-28T17:15:48.639Z,1.57
2019-04-28T17:21:00.443Z,1.70
2019-04-28T17:26:05.516Z,1.80
2019-04-28T17:31:11.603Z,1.35
2019-04-28T17:36:16.843Z,1.72
2019-04-28T17:41:22.244Z,1.10
2019-04-28T17:46:27.419Z,2.52
2019-04-28T17:51:32.496Z,1.92
2019-04-28T17:56:37.557Z,1.27
2019-04-28T18:02:08.503Z,1.98
2019-04-28T18:07:21.311Z,1.57
2019-04-28T18:12:26.251Z,1.72
2019-04-28T18:17:48.705Z,2.22
2019-04-28T18:22:53.455Z,2.67
2019-04-28T18:28:04.278Z,2.08
2019-04-28T18:33:27.277Z,2.08
2019-04-28T18:38:39.085Z,4.83
2019-04-28T18:44:05.907Z,1.70
2019-04-28T18:49:10.737Z,4.25
2019-04-28T18:54:15.546Z,4.55
2019-04-28T18:59:20.463Z,3.12
2019-04-28T19:04:25.448Z,2.75
2019-04-28T19:09:46.012Z,5.20
2019-04-28T19:15:13.792Z,2.00
2019-04-28T19:20:18.485Z,1.90
2019-04-28T19:25:23.856Z,2.30
2019-04-28T19:30:28.828Z,2.33
2019-04-28T19:35:34.142Z,2.55
2019-04-28T19:40:38.850Z,1.55
2019-04-28T19:45:45.127Z,3.10
2019-04-28T19:50:50.968Z,2.33
2019-04-28T19:56:02.225Z,3.20
2019-04-28T20:01:18.111Z,2.58
2019-04-28T20:06:23.016Z,2.35
2019-04-28T20:11:27.741Z,2.37
2019-04-28T20:16:32.506Z,6.90
2019-04-28T20:21:37.228Z,1.65
2019-04-28T20:26:42.774Z,3.35
2019-04-28T20:31:49.892Z,2.70
2019-04-28T20:37:10.601Z,2.20
2019-04-28T20:42:46.717Z,5.47
2019-04-28T20:47:51.448Z,2.77
2019-04-28T20:52:56.129Z,3.22
2019-04-28T20:58:00.978Z,4.42
2019-04-28T21:03:05.741Z,2.27
2019-04-28T21:08:12.502Z,4.53
2019-04-28T21:13:17.212Z,3.40
2019-04-28T21:18:22.051Z,3.87
2019-04-28T21:23:26.731Z,3.95
2019-04-28T21:28:31.651Z,2.25
2019-04-28T21:33:36.382Z,4.40
2019-04-28T21:38:41.255Z,3.35
2019-04-28T21:43:59.043Z,2.50
2019-04-28T21:49:25.193Z,3.80
2019-04-28T21:54:29.913Z,3.17
2019-04-28T21:59:34.737Z,4.83
2019-04-28T22:04:39.740Z,4.40
2019-04-28T22:09:44.445Z,4.75
2019-04-28T22:14:51.034Z,3.98
2019-04-28T22:19:55.919Z,3.02
2019-04-28T22:25:09.825Z,3.27
2019-04-28T22:30:15.430Z,2.43
2019-04-28T22:35:20.207Z,3.03
2019-04-28T22:40:25.002Z,2.43
2019-04-28T22:45:29.847Z,2.65
2019-04-28T22:50:42.950Z,2.25
2019-04-28T22:55:53.013Z,2.85
2019-04-28T23:01:20.033Z,2.35
2019-04-28T23:06:26.098Z,2.72
2019-04-28T23:11:30.763Z,1.90
2019-04-28T23:16:35.607Z,3.10
2019-04-28T23:21:55.278Z,3.08
2019-04-28T23:27:00.166Z,3.20
2019-04-28T23:32:05.079Z,2.33
2019-04-28T23:37:10.034Z,3.60
2019-04-28T23:42:20.825Z,2.33
2019-04-28T23:47:25.532Z,3.27
2019-04-28T23:52:50.845Z,3.17
2019-04-28T23:57:55.547Z,3.62
